Time;durP1;ratioP1;P1;durP2;ratioP2;P2;SDS_P1;SDS_P2;PMS_P1;PMS_P2;Temp;Humidity;BMP_temperature;BMP_pressure;BME280_temperature;BME280_humidity;BME280_pressure;Samples;Min_cycle;Max_cycle;Signal;HPM_P1;HPM_P2
2022/11/09 00:00:27;;;;;;;6.63;2.10;;;;;;;14.53;69.65;100412.31;5079216;28;20383;-85
2022/11/09 00:02:54;;;;;;;8.10;1.90;;;;;;;14.61;69.42;100417.19;5065881;28;20084;-85
2022/11/09 00:05:19;;;;;;;4.57;1.65;;;;;;;14.53;68.71;100413.19;5077725;28;20457;-85
2022/11/09 00:07:44;;;;;;;8.90;2.17;;;;;;;14.48;69.62;100427.72;5066230;28;20047;-85
2022/11/09 00:10:10;;;;;;;5.95;2.03;;;;;;;14.51;69.54;100422.22;5064478;28;20029;-85
2022/11/09 00:12:35;;;;;;;4.90;1.73;;;;;;;14.47;69.91;100420.69;5066098;28;20034;-87
2022/11/09 00:15:00;;;;;;;5.00;2.10;;;;;;;14.41;70.33;100426.34;5092093;28;20061;-85
2022/11/09 00:17:26;;;;;;;8.07;2.40;;;;;;;14.47;69.98;100418.00;5090209;28;20110;-85
2022/11/09 00:19:51;;;;;;;7.35;2.55;;;;;;;14.40;70.29;100408.69;5069410;28;20388;-86
2022/11/09 00:22:17;;;;;;;4.85;2.00;;;;;;;14.41;70.13;100413.06;5085525;28;20459;-86
2022/11/09 00:24:42;;;;;;;4.22;1.90;;;;;;;14.45;70.07;100417.25;5071481;28;20138;-85
2022/11/09 00:27:07;;;;;;;7.05;2.40;;;;;;;14.48;69.83;100407.31;5091699;28;20040;-85
2022/11/09 00:29:32;;;;;;;4.35;2.05;;;;;;;14.54;70.03;100414.03;5087606;28;20032;-86
2022/11/09 00:31:58;;;;;;;5.82;2.00;;;;;;;14.60;69.89;100415.47;5071666;28;20567;-85
2022/11/09 00:34:23;;;;;;;6.50;2.20;;;;;;;14.60;69.85;100415.47;5067213;28;20126;-85
2022/11/09 00:36:48;;;;;;;6.50;2.10;;;;;;;14.61;70.24;100420.69;5072447;28;20022;-85
2022/11/09 00:39:13;;;;;;;7.05;2.03;;;;;;;14.54;69.88;100414.88;5088849;28;20063;-85
2022/11/09 00:41:39;;;;;;;3.65;1.98;;;;;;;14.50;70.50;100417.84;5087283;28;20395;-86
2022/11/09 00:44:04;;;;;;;8.63;2.00;;;;;;;14.45;70.54;100401.28;5090865;28;20047;-85
2022/11/09 00:46:30;;;;;;;6.72;2.10;;;;;;;14.41;70.81;100411.28;5068423;28;20048;-85
2022/11/09 00:48:55;;;;;;;8.25;2.30;;;;;;;14.33;71.26;100407.38;5071934;28;20124;-86
2022/11/09 00:51:20;;;;;;;4.22;2.08;;;;;;;14.36;70.97;100402.75;5087867;28;20039;-85
2022/11/09 00:53:47;;;;;;;5.47;2.00;;;;;;;14.40;70.99;100406.88;5067924;28;20051;-86
2022/11/09 00:56:12;;;;;;;3.33;1.88;;;;;;;14.35;70.71;100403.66;5069186;28;20027;-85
2022/11/09 00:58:38;;;;;;;3.40;1.90;;;;;;;14.29;70.70;100394.28;5088583;28;20475;-86
2022/11/09 01:01:10;;;;;;;7.20;1.88;;;;;;;14.39;70.53;100401.69;5084388;28;20267;-86
2022/11/09 01:03:36;;;;;;;5.70;2.20;;;;;;;14.38;70.25;100399.97;5064803;28;20028;-86
2022/11/09 01:06:01;;;;;;;4.47;1.83;;;;;;;14.37;70.53;100411.56;5070911;28;20016;-85
2022/11/09 01:08:26;;;;;;;3.95;1.88;;;;;;;14.33;70.42;100421.53;5073867;28;20054;-85
2022/11/09 01:10:52;;;;;;;6.82;2.00;;;;;;;14.31;70.65;100415.44;5064309;28;20677;-86
2022/11/09 01:13:18;;;;;;;4.85;1.85;;;;;;;14.30;70.73;100419.06;5087665;28;20032;-85
2022/11/09 01:15:49;;;;;;;6.28;1.95;;;;;;;14.26;70.58;100421.06;5065809;28;20085;-85
2022/11/09 01:18:16;;;;;;;6.20;2.17;;;;;;;14.25;70.56;100419.34;5091048;28;20364;-85
2022/11/09 01:20:45;;;;;;;3.97;1.80;;;;;;;14.28;70.45;100421.81;5089200;28;20440;-85
2022/11/09 01:23:12;;;;;;;2.90;1.85;;;;;;;14.30;70.23;100433.22;5083381;28;20438;-85
2022/11/09 01:25:37;;;;;;;7.68;1.75;;;;;;;14.40;69.84;100441.47;5067010;28;20530;-85
2022/11/09 01:28:04;;;;;;;3.92;1.83;;;;;;;14.38;69.99;100426.56;5071788;28;20073;-86
2022/11/09 01:30:33;;;;;;;4.97;1.88;;;;;;;14.48;69.34;100435.72;5070092;28;20489;-86
2022/11/09 01:32:59;;;;;;;3.55;1.60;;;;;;;14.45;69.69;100433.19;5066492;28;20026;-85
2022/11/09 01:35:24;;;;;;;6.45;1.60;;;;;;;14.46;69.27;100441.09;5087024;28;20028;-85
2022/11/09 01:37:49;;;;;;;5.00;1.80;;;;;;;14.51;69.11;100425.75;5070884;28;20491;-85
2022/11/09 01:40:14;;;;;;;6.35;2.78;;;;;;;14.45;68.99;100436.72;5063387;28;20040;-86
2022/11/09 01:42:40;;;;;;;4.65;1.90;;;;;;;14.44;69.11;100431.50;5071041;28;20055;-85
2022/11/09 01:45:17;;;;;;;3.30;1.60;;;;;;;14.48;69.19;100439.22;5083230;28;20031;-86
2022/11/09 01:47:44;;;;;;;7.13;1.67;;;;;;;14.41;69.12;100444.97;5084689;28;20048;-85
2022/11/09 01:50:11;;;;;;;5.20;1.90;;;;;;;14.38;69.36;100442.53;5083967;28;20441;-85
2022/11/09 01:52:41;;;;;;;5.45;1.80;;;;;;;14.35;69.23;100438.25;5080860;28;20095;-85
2022/11/09 01:55:10;;;;;;;5.60;1.75;;;;;;;14.35;69.07;100432.91;5067513;28;20032;-85
2022/11/09 01:57:41;;;;;;;4.40;2.78;;;;;;;14.23;69.38;100426.56;5068907;28;20116;-85
2022/11/09 02:00:09;;;;;;;4.95;1.83;;;;;;;14.23;69.25;100423.06;5081216;28;20499;-86
2022/11/09 02:02:38;;;;;;;4.78;2.00;;;;;;;14.21;69.65;100420.47;5080019;28;20058;-86
2022/11/09 02:05:09;;;;;;;4.22;1.77;;;;;;;14.17;69.50;100421.63;5086005;28;20106;-85
2022/11/09 02:07:36;;;;;;;5.47;1.70;;;;;;;14.20;69.62;100433.88;5060648;28;20041;-85
2022/11/09 02:10:19;;;;;;;8.10;1.60;;;;;;;14.25;69.21;100439.78;5082576;28;20024;-87
2022/11/09 02:12:44;;;;;;;;;;;;;;;14.37;68.93;100433.69;5060594;28;20081;-85
2022/11/09 02:15:11;;;;;;;5.28;1.83;;;;;;;14.16;69.46;100429.69;5068305;28;19920;-85
2022/11/09 02:17:37;;;;;;;5.18;1.88;;;;;;;14.12;69.69;100436.16;5071538;28;20449;-85
2022/11/09 02:20:11;;;;;;;3.47;1.58;;;;;;;14.11;70.24;100442.41;5085882;28;20023;-85
2022/11/09 02:22:36;;;;;;;4.30;1.95;;;;;;;14.09;70.04;100436.34;5085668;28;20354;-85
2022/11/09 02:25:03;;;;;;;3.35;1.83;;;;;;;14.13;69.93;100440.50;5084665;28;20073;-85
2022/11/09 02:27:28;;;;;;;5.60;1.65;;;;;;;14.00;70.52;100437.78;5086767;28;20836;-85
2022/11/09 02:29:56;;;;;;;5.03;1.80;;;;;;;14.06;70.21;100442.69;5084264;28;20031;-85
2022/11/09 02:32:26;;;;;;;6.35;1.80;;;;;;;14.09;69.99;100442.53;5066599;28;20032;-85
2022/11/09 02:34:51;;;;;;;5.68;1.83;;;;;;;14.02;70.04;100442.03;5068795;28;20024;-85
2022/11/09 02:37:33;;;;;;;9.48;2.10;;;;;;;14.14;70.08;100458.19;5083199;28;20111;-86
2022/11/09 02:40:02;;;;;;;5.60;1.70;;;;;;;14.16;69.72;100458.94;5087135;28;20501;-85
2022/11/09 02:42:27;;;;;;;4.43;1.42;;;;;;;14.06;70.08;100448.00;5065871;28;20111;-85
2022/11/09 02:44:58;;;;;;;7.22;1.85;;;;;;;14.17;69.84;100450.88;5083960;28;20546;-86
2022/11/09 02:47:23;;;;;;;4.18;1.27;;;;;;;14.24;69.01;100424.78;5084866;28;20055;-85
2022/11/09 02:49:49;;;;;;;4.47;1.40;;;;;;;14.20;68.98;100437.38;5062433;28;20375;-85
2022/11/09 02:52:14;;;;;;;8.20;1.65;;;;;;;14.25;68.80;100429.97;5085964;28;20028;-86
2022/11/09 02:54:40;;;;;;;7.30;1.50;;;;;;;14.34;68.57;100435.69;5069245;28;20028;-85
2022/11/09 02:57:05;;;;;;;5.05;1.67;;;;;;;14.32;68.06;100438.44;5066116;28;20016;-85
2022/11/09 02:59:30;;;;;;;5.65;1.98;;;;;;;14.36;67.71;100415.16;5087119;28;20036;-86
2022/11/09 03:01:55;;;;;;;7.88;2.00;;;;;;;14.34;67.77;100393.13;5083649;28;20085;-86
2022/11/09 03:04:21;;;;;;;4.75;1.60;;;;;;;14.36;67.72;100396.53;5085221;28;20449;-86
2022/11/09 03:06:46;;;;;;;5.35;1.52;;;;;;;14.44;67.31;100421.72;5088053;28;20159;-85
2022/11/09 03:09:11;;;;;;;10.10;1.80;;;;;;;14.41;67.25;100424.59;5089709;28;20547;-85
2022/11/09 03:11:38;;;;;;;5.88;2.30;;;;;;;14.47;67.29;100426.84;5070529;28;20085;-86
2022/11/09 03:14:04;;;;;;;5.07;1.60;;;;;;;14.47;67.48;100436.63;5086097;28;20111;-85
2022/11/09 03:16:30;;;;;;;6.22;1.70;;;;;;;14.48;67.81;100463.16;5068341;28;20456;-86
2022/11/09 03:18:56;;;;;;;10.85;1.80;;;;;;;14.40;67.45;100460.09;5087670;28;20028;-85
2022/11/09 03:21:22;;;;;;;8.48;1.67;;;;;;;14.42;67.53;100460.88;5064162;28;20467;-86
2022/11/09 03:23:48;;;;;;;7.25;1.55;;;;;;;14.36;68.49;100460.38;5088214;28;20035;-86
2022/11/09 03:26:14;;;;;;;5.65;1.80;;;;;;;14.30;68.10;100459.81;5069347;28;20040;-86
2022/11/09 03:28:40;;;;;;;5.18;1.50;;;;;;;14.34;68.14;100483.56;5084285;28;20039;-85
2022/11/09 03:31:05;;;;;;;8.02;1.27;;;;;;;14.26;68.46;100473.38;5079982;28;20039;-86
2022/11/09 03:33:31;;;;;;;5.03;1.40;;;;;;;14.27;68.45;100465.31;5064318;28;20510;-85
2022/11/09 03:35:56;;;;;;;8.57;1.73;;;;;;;14.22;69.02;100471.84;5084291;28;20387;-84
2022/11/09 03:38:21;;;;;;;8.48;2.00;;;;;;;14.18;68.67;100478.34;5085806;28;20024;-86
2022/11/09 03:40:47;;;;;;;5.95;1.73;;;;;;;14.11;69.08;100474.31;5082686;28;20024;-85
2022/11/09 03:43:12;;;;;;;6.57;1.58;;;;;;;14.14;69.25;100484.78;5055571;28;20149;-85
2022/11/09 03:45:37;;;;;;;7.68;1.60;;;;;;;14.10;69.23;100484.09;5067469;28;20052;-85
2022/11/09 03:48:03;;;;;;;14.05;2.00;;;;;;;14.10;69.09;100494.75;5072557;28;20500;-85
2022/11/09 03:50:30;;;;;;;6.05;1.77;;;;;;;14.08;69.21;100483.31;5088915;28;20034;-85
2022/11/09 03:52:57;;;;;;;8.25;1.60;;;;;;;14.09;69.13;100490.38;5088359;28;20035;-85
2022/11/09 03:55:22;;;;;;;9.48;1.80;;;;;;;14.16;69.02;100506.78;5090002;28;20031;-86
2022/11/09 03:57:48;;;;;;;9.50;2.63;;;;;;;14.14;69.53;100503.38;5091200;28;20020;-87
2022/11/09 04:00:16;;;;;;;7.07;1.40;;;;;;;14.10;69.76;100518.66;5087621;28;20106;-86
2022/11/09 04:02:42;;;;;;;4.07;1.10;;;;;;;14.08;69.76;100515.22;5069820;28;20495;-86
2022/11/09 04:05:08;;;;;;;7.70;1.88;;;;;;;14.02;70.28;100527.09;5070499;28;20097;-85
2022/11/09 04:07:33;;;;;;;5.03;1.48;;;;;;;13.98;70.44;100527.34;5068505;28;20612;-86
2022/11/09 04:09:58;;;;;;;7.63;1.90;;;;;;;13.94;70.34;100517.84;5069462;28;20044;-85
2022/11/09 04:12:24;;;;;;;5.07;1.50;;;;;;;13.89;70.40;100509.28;5071823;28;20028;-86
2022/11/09 04:14:49;;;;;;;6.10;1.88;;;;;;;13.87;70.56;100525.34;5072999;28;20028;-85
2022/11/09 04:17:15;;;;;;;6.95;1.88;;;;;;;13.81;71.11;100530.16;5065745;28;20502;-85
2022/11/09 04:19:40;;;;;;;8.48;1.85;;;;;;;13.75;71.22;100518.06;5087512;28;20024;-85
2022/11/09 04:22:05;;;;;;;7.75;1.58;;;;;;;13.74;71.40;100530.50;5069827;28;20028;-85
2022/11/09 04:24:31;;;;;;;5.13;1.45;;;;;;;13.65;71.55;100535.50;5088426;28;20024;-85
2022/11/09 04:26:56;;;;;;;8.48;1.80;;;;;;;13.65;71.54;100538.16;5087607;28;20025;-86
2022/11/09 04:29:21;;;;;;;7.93;1.83;;;;;;;13.68;71.72;100544.16;5072536;28;20035;-86
2022/11/09 04:31:47;;;;;;;10.18;1.77;;;;;;;13.62;71.80;100538.34;5085876;28;20032;-86
2022/11/09 04:34:13;;;;;;;8.35;1.63;;;;;;;13.68;71.99;100546.81;5071684;28;20375;-85
2022/11/09 04:36:38;;;;;;;7.78;2.13;;;;;;;13.62;71.70;100552.50;5069371;28;20022;-86
2022/11/09 04:39:03;;;;;;;11.90;2.05;;;;;;;13.51;72.24;100545.13;5089633;28;20205;-85
2022/11/09 04:41:29;;;;;;;7.95;1.58;;;;;;;13.60;71.93;100554.34;5069553;28;20437;-85
2022/11/09 04:43:54;;;;;;;4.80;1.63;;;;;;;13.61;71.95;100552.56;5089998;28;20032;-86
2022/11/09 04:46:19;;;;;;;6.72;1.48;;;;;;;13.59;72.17;100542.03;5088556;28;20048;-85
2022/11/09 04:48:44;;;;;;;6.55;1.70;;;;;;;13.66;71.79;100556.69;5068318;28;20038;-86
2022/11/09 04:51:10;;;;;;;7.07;2.03;;;;;;;13.68;71.93;100554.78;5070006;28;20062;-85
2022/11/09 04:53:36;;;;;;;5.18;1.40;;;;;;;13.67;71.73;100554.88;5068776;28;20471;-86
2022/11/09 04:56:03;;;;;;;7.75;2.00;;;;;;;13.63;72.06;100556.84;5087284;28;20471;-86
2022/11/09 04:58:28;;;;;;;10.77;2.28;;;;;;;13.59;72.43;100562.44;5069828;28;20020;-86
2022/11/09 05:00:54;;;;;;;10.15;3.03;;;;;;;13.57;72.30;100540.38;5071150;28;20035;-86
2022/11/09 05:03:19;;;;;;;6.57;1.73;;;;;;;13.52;72.20;100548.63;5087402;28;20027;-85
2022/11/09 05:05:45;;;;;;;7.43;1.70;;;;;;;13.49;72.22;100554.97;5071358;28;20085;-86
2022/11/09 05:08:11;;;;;;;7.05;1.98;;;;;;;13.50;72.86;100553.19;5069584;28;20486;-85
2022/11/09 05:10:37;;;;;;;6.47;1.38;;;;;;;13.49;72.67;100549.66;5086271;28;20034;-85
2022/11/09 05:13:04;;;;;;;9.10;1.80;;;;;;;13.43;72.99;100546.50;5089852;28;20028;-85
2022/11/09 05:15:31;;;;;;;9.50;1.80;;;;;;;13.36;73.39;100529.22;5068568;28;20027;-85
2022/11/09 05:17:57;;;;;;;6.10;1.60;;;;;;;13.39;72.99;100529.91;5088405;28;20028;-85
2022/11/09 05:20:22;;;;;;;7.82;1.50;;;;;;;13.41;73.13;100535.09;5068489;28;20038;-85
2022/11/09 05:25:31;;;;;;;9.63;1.80;;;;;;;13.34;73.18;100544.38;5086335;28;20162;-85
2022/11/09 05:27:57;;;;;;;7.57;1.85;;;;;;;13.25;73.67;100533.34;5088115;28;20699;-85
2022/11/09 05:30:22;;;;;;;5.82;1.65;;;;;;;13.19;73.21;100528.31;5063358;28;20527;-86
2022/11/09 05:32:47;;;;;;;9.25;1.50;;;;;;;13.23;73.53;100539.66;5083199;28;20032;-85
2022/11/09 05:35:13;;;;;;;9.40;2.10;;;;;;;13.12;73.56;100539.38;5072263;28;20031;-85
2022/11/09 05:37:38;;;;;;;10.00;2.17;;;;;;;13.14;73.72;100553.41;5087680;28;20016;-85
2022/11/09 05:40:05;;;;;;;5.90;1.73;;;;;;;13.11;74.23;100553.59;5082255;28;20456;-85
2022/11/09 05:42:31;;;;;;;4.93;1.70;;;;;;;13.04;74.00;100545.09;5085958;28;20035;-85
2022/11/09 05:44:56;;;;;;;11.27;2.05;;;;;;;13.06;73.98;100545.88;5070148;28;20031;-86
2022/11/09 05:47:21;;;;;;;7.93;1.50;;;;;;;13.05;74.02;100545.94;5085187;28;20424;-85
2022/11/09 05:49:47;;;;;;;8.18;1.83;;;;;;;13.02;74.27;100539.88;5085781;28;20454;-85
2022/11/09 05:52:12;;;;;;;14.43;2.08;;;;;;;12.99;74.48;100542.69;5067615;28;20027;-85
2022/11/09 05:54:37;;;;;;;10.35;1.85;;;;;;;13.04;74.70;100547.75;5087773;28;20031;-85
2022/11/09 05:57:03;;;;;;;10.15;1.95;;;;;;;13.04;74.12;100550.41;5068894;28;20088;-85
2022/11/09 05:59:28;;;;;;;10.15;1.90;;;;;;;13.04;74.33;100542.44;5088799;28;20403;-86
2022/11/09 06:01:54;;;;;;;10.18;1.80;;;;;;;12.96;74.41;100540.22;5066644;28;20406;-86
2022/11/09 06:04:19;;;;;;;9.80;1.80;;;;;;;13.04;73.95;100553.06;5069388;28;20028;-85
2022/11/09 06:06:44;;;;;;;12.43;2.33;;;;;;;13.00;74.11;100548.84;5069304;28;20457;-86
2022/11/09 06:09:10;;;;;;;8.57;2.08;;;;;;;12.99;74.41;100552.47;5088699;28;20391;-85
2022/11/09 06:11:35;;;;;;;8.85;2.03;;;;;;;13.02;74.50;100549.66;5085400;28;20475;-86
2022/11/09 06:14:00;;;;;;;5.20;1.63;;;;;;;12.97;74.35;100552.56;5088869;28;20039;-86
2022/11/09 06:16:26;;;;;;;7.43;1.90;;;;;;;12.95;74.36;100565.03;5069227;28;20032;-85
2022/11/09 06:18:51;;;;;;;9.80;2.22;;;;;;;12.95;74.78;100566.84;5060470;28;20460;-85
2022/11/09 06:21:16;;;;;;;8.15;1.73;;;;;;;12.93;74.60;100563.41;5052652;28;20029;-86
2022/11/09 06:23:42;;;;;;;9.90;2.00;;;;;;;12.92;74.83;100561.72;5085627;28;20410;-85
2022/11/09 06:26:10;;;;;;;8.05;1.80;;;;;;;12.89;74.98;100557.41;5086150;28;20030;-85
2022/11/09 06:28:37;;;;;;;9.27;1.77;;;;;;;12.82;75.10;100563.97;5089265;28;20028;-86
2022/11/09 06:31:04;;;;;;;5.97;1.98;;;;;;;12.82;75.22;100563.97;5086010;28;20028;-86
2022/11/09 06:33:31;;;;;;;5.38;1.50;;;;;;;12.78;75.66;100570.41;5070728;28;20578;-85
2022/11/09 06:35:57;;;;;;;10.45;2.03;;;;;;;12.80;75.86;100570.31;5085056;28;20031;-86
2022/11/09 06:38:25;;;;;;;7.70;2.05;;;;;;;12.86;75.44;100575.28;5088967;28;20106;-85
2022/11/09 06:40:51;;;;;;;10.80;2.78;;;;;;;12.87;75.35;100571.69;5069283;28;20024;-86
2022/11/09 06:43:17;;;;;;;7.97;2.35;;;;;;;12.89;75.18;100575.97;5069711;28;20052;-86
2022/11/09 06:45:42;;;;;;;9.25;1.83;;;;;;;12.85;75.15;100573.56;5069223;28;20046;-85
2022/11/09 06:48:08;;;;;;;8.02;1.92;;;;;;;12.86;75.37;100581.44;5064722;28;20514;-86
2022/11/09 06:50:34;;;;;;;6.95;2.50;;;;;;;12.80;75.24;100570.31;5065213;28;20073;-85
2022/11/09 06:53:02;;;;;;;9.57;1.92;;;;;;;12.79;75.60;100574.78;5088163;28;20020;-85
2022/11/09 06:55:29;;;;;;;12.30;2.00;;;;;;;12.82;75.56;100590.50;5069410;28;20471;-85
2022/11/09 06:57:54;;;;;;;8.75;1.73;;;;;;;12.78;75.82;100588.97;5066764;28;20016;-85
2022/11/09 07:00:20;;;;;;;6.60;1.67;;;;;;;12.79;75.65;100592.50;5065275;28;20028;-86
2022/11/09 07:02:46;;;;;;;11.63;1.85;;;;;;;12.81;75.84;100582.63;5062873;28;20141;-85
2022/11/09 07:05:11;;;;;;;8.05;1.60;;;;;;;12.83;75.61;100600.19;5057365;28;20059;-85
2022/11/09 07:07:36;;;;;;;8.95;1.85;;;;;;;12.87;75.23;100600.88;5088133;28;20039;-85
2022/11/09 07:10:03;;;;;;;7.20;1.70;;;;;;;12.84;75.73;100595.75;5086909;28;20048;-85
2022/11/09 07:12:28;;;;;;;8.07;2.40;;;;;;;12.76;75.76;100593.50;5065912;28;20024;-85
2022/11/09 07:14:53;;;;;;;13.95;2.55;;;;;;;12.85;75.54;100605.41;5086362;28;20038;-86
2022/11/09 07:17:18;;;;;;;11.88;1.90;;;;;;;12.88;75.72;100607.91;5084983;28;20031;-85
2022/11/09 07:19:44;;;;;;;5.38;2.47;;;;;;;12.87;75.12;100600.88;5086222;28;21322;-85
2022/11/09 07:22:09;;;;;;;6.65;2.00;;;;;;;12.85;75.27;100600.09;5071343;28;20067;-85
2022/11/09 07:24:35;;;;;;;7.40;1.75;;;;;;;12.91;75.22;100600.63;5085106;28;20040;-85
2022/11/09 07:27:00;;;;;;;8.10;2.00;;;;;;;12.95;74.99;100607.47;5092033;28;20081;-86
2022/11/09 07:29:25;;;;;;;7.20;2.08;;;;;;;12.99;74.82;100608.19;5087005;28;20458;-85
2022/11/09 07:31:51;;;;;;;9.50;2.15;;;;;;;13.09;74.90;100609.41;5085372;28;20301;-85
2022/11/09 07:34:16;;;;;;;9.75;2.20;;;;;;;13.11;74.68;100619.94;5088169;28;20036;-84
2022/11/09 07:36:41;;;;;;;7.07;2.03;;;;;;;13.14;74.19;100610.00;5069766;28;20055;-85
2022/11/09 07:39:06;;;;;;;7.47;1.85;;;;;;;13.15;74.22;100616.16;5070780;28;20536;-85
2022/11/09 07:41:32;;;;;;;8.98;1.70;;;;;;;13.09;74.10;100608.53;5070980;28;20024;-84
2022/11/09 07:43:57;;;;;;;8.90;1.70;;;;;;;13.08;74.50;100610.34;5069160;28;20024;-85
2022/11/09 07:46:23;;;;;;;7.53;1.90;;;;;;;13.14;74.33;100615.31;5087847;28;20415;-85
2022/11/09 07:48:48;;;;;;;8.27;2.25;;;;;;;13.12;74.42;100619.84;5092280;28;20063;-86
2022/11/09 07:51:13;;;;;;;7.03;2.03;;;;;;;13.13;74.25;100610.94;5069732;28;20077;-86
2022/11/09 07:53:39;;;;;;;9.10;1.67;;;;;;;13.25;74.27;100620.94;5088812;28;20374;-87
2022/11/09 07:56:04;;;;;;;9.55;1.95;;;;;;;13.58;73.17;100617.34;5090403;28;20055;-86
2022/11/09 07:58:30;;;;;;;6.50;1.80;;;;;;;14.17;70.80;100630.81;5089756;28;20032;-86
2022/11/09 08:00:55;;;;;;;7.43;1.90;;;;;;;14.53;69.42;100626.00;5084988;28;20024;-86
2022/11/09 08:03:22;;;;;;;6.72;2.00;;;;;;;14.63;68.88;100631.63;5072524;28;20127;-86
2022/11/09 08:05:48;;;;;;;9.18;1.65;;;;;;;14.62;68.26;100623.75;5089341;28;20678;-86
2022/11/09 08:08:15;;;;;;;10.55;2.13;;;;;;;14.51;68.54;100643.03;5089957;28;20078;-87
2022/11/09 08:10:41;;;;;;;8.95;1.88;;;;;;;14.43;69.32;100637.25;5088904;28;20035;-86
2022/11/09 08:13:11;;;;;;;5.35;1.77;;;;;;;14.39;69.61;100635.72;5084332;28;20162;-86
2022/11/09 08:15:39;;;;;;;6.80;1.92;;;;;;;14.52;68.87;100642.91;5069741;28;20020;-86
2022/11/09 08:18:12;;;;;;;4.35;1.52;;;;;;;14.89;68.54;100645.16;5092316;28;20034;-86
2022/11/09 08:20:37;;;;;;;5.20;1.90;;;;;;;15.07;67.20;100649.34;5081642;28;20111;-86
2022/11/09 08:23:03;;;;;;;6.75;1.75;;;;;;;15.37;65.79;100640.38;5091412;28;20106;-86
2022/11/09 08:25:28;;;;;;;9.55;1.60;;;;;;;15.35;65.76;100643.16;5086983;28;20111;-87
2022/11/09 08:27:57;;;;;;;6.28;1.73;;;;;;;15.53;65.23;100650.00;5060651;28;20475;-86
2022/11/09 08:30:23;;;;;;;3.13;1.40;;;;;;;15.75;63.44;100657.47;5087718;28;20085;-86
2022/11/09 08:32:48;;;;;;;9.27;2.10;;;;;;;15.46;65.00;100661.97;5088228;28;20513;-87
2022/11/09 08:35:17;;;;;;;11.02;2.28;;;;;;;15.66;64.33;100668.72;5084194;28;20032;-86
2022/11/09 08:37:44;;;;;;;6.78;1.63;;;;;;;16.09;62.72;100671.28;5065858;28;20024;-86
2022/11/09 08:40:09;;;;;;;4.80;1.50;;;;;;;16.22;62.16;100663.31;5093204;28;20481;-86
2022/11/09 08:42:35;;;;;;;6.68;1.80;;;;;;;16.24;62.14;100672.94;5079522;28;20108;-86
2022/11/09 08:45:01;;;;;;;10.07;1.67;;;;;;;15.89;62.57;100656.56;5068385;28;20030;-86
2022/11/09 08:47:27;;;;;;;6.82;1.83;;;;;;;15.94;63.13;100665.13;5065590;28;20135;-85
2022/11/09 08:49:53;;;;;;;5.55;1.67;;;;;;;16.65;61.46;100666.63;5068236;28;20539;-85
2022/11/09 08:52:18;;;;;;;8.40;1.60;;;;;;;16.96;59.76;100673.41;5071840;28;20127;-85
2022/11/09 08:54:43;;;;;;;4.63;1.42;;;;;;;16.62;60.14;100664.16;5067164;28;20440;-86
2022/11/09 08:57:09;;;;;;;6.97;1.63;;;;;;;16.78;59.78;100667.50;5063150;28;20502;-86
2022/11/09 08:59:34;;;;;;;6.68;1.75;;;;;;;16.79;60.00;100665.72;5064366;28;20029;-85
2022/11/09 09:02:00;;;;;;;8.23;1.85;;;;;;;17.48;57.91;100669.72;5065346;28;20115;-85
2022/11/09 09:04:26;;;;;;;7.55;1.88;;;;;;;18.78;54.54;100673.47;5065483;28;20024;-85
2022/11/09 09:06:51;;;;;;;5.13;1.80;;;;;;;19.24;52.74;100669.00;5068641;28;20077;-85
2022/11/09 09:09:17;;;;;;;7.82;1.40;;;;;;;20.05;51.24;100668.72;5059382;28;20032;-85
2022/11/09 09:11:42;;;;;;;6.50;1.90;;;;;;;20.82;49.02;100673.00;5056297;28;20029;-85
2022/11/09 09:14:08;;;;;;;6.68;1.20;;;;;;;21.21;47.70;100673.22;5064745;28;20052;-85
2022/11/09 09:16:33;;;;;;;6.28;1.30;;;;;;;21.09;46.60;100664.41;5070915;28;20038;-86
2022/11/09 09:18:58;;;;;;;5.90;1.60;;;;;;;20.53;47.99;100670.13;5070348;28;20077;-86
2022/11/09 09:21:23;;;;;;;7.00;2.00;;;;;;;20.22;50.14;100667.28;5068990;28;20119;-85
2022/11/09 09:23:49;;;;;;;7.53;1.50;;;;;;;20.94;47.93;100674.66;5065906;28;20503;-85
2022/11/09 09:26:15;;;;;;;7.25;1.48;;;;;;;20.15;49.37;100676.00;5058752;28;20242;-85
2022/11/09 09:28:41;;;;;;;5.10;1.67;;;;;;;19.22;50.83;100682.53;5059859;28;20112;-86
2022/11/09 09:31:07;;;;;;;6.30;1.52;;;;;;;19.27;51.34;100668.78;5066490;28;20115;-86
2022/11/09 09:33:32;;;;;;;7.20;1.85;;;;;;;18.40;52.74;100705.81;5067201;28;20028;-86
2022/11/09 09:35:58;;;;;;;3.75;1.30;;;;;;;18.30;52.97;100683.38;5063771;28;20494;-86
2022/11/09 09:38:24;;;;;;;5.85;1.92;;;;;;;18.68;53.74;100693.00;5068541;28;20032;-86
2022/11/09 09:41:00;;;;;;;13.23;2.20;;;;;;;19.97;50.43;100686.41;5061716;28;20036;-86
2022/11/09 09:43:57;;;;;;;6.78;1.63;;;;;;;20.43;50.10;100686.13;5050430;28;20043;-86
2022/11/09 09:46:35;;;;;;;6.10;1.58;;;;;;;20.44;48.22;100682.47;5051863;28;20083;-86
2022/11/09 09:49:15;;;;;;;8.55;1.52;;;;;;;19.01;50.46;100687.75;5089091;28;20028;-86
2022/11/09 09:51:48;;;;;;;9.73;1.98;;;;;;;19.19;50.42;100704.22;5061764;28;20024;-89
2022/11/09 09:54:21;;;;;;;6.80;1.70;;;;;;;19.56;49.93;100707.53;5070156;28;20043;-86
2022/11/09 09:56:49;;;;;;;8.95;1.52;;;;;;;20.58;46.85;100710.88;5071726;28;20028;-86
2022/11/09 09:59:39;;;;;;;8.40;1.73;;;;;;;21.77;46.94;100715.81;5089375;28;20479;-86
2022/11/09 10:02:26;;;;;;;6.13;1.73;;;;;;;22.48;44.53;100713.84;5073919;28;20062;-86
2022/11/09 10:04:54;;;;;;;6.63;1.35;;;;;;;23.09;40.77;100716.22;5068082;28;20364;-89
2022/11/09 10:07:51;;;;;;;6.97;1.48;;;;;;;22.81;43.66;100735.97;5083014;28;20032;-90
2022/11/09 10:10:53;;;;;;;4.75;1.38;;;;;;;22.89;41.11;100733.41;5043126;28;20507;-85
2022/11/09 10:13:22;;;;;;;4.35;1.50;;;;;;;21.79;43.61;100720.06;5070908;28;20359;-86
2022/11/09 10:16:00;;;;;;;8.70;1.55;;;;;;;21.32;44.37;100718.91;5089783;28;20498;-90
2022/11/09 10:18:51;;;;;;;9.07;1.50;;;;;;;19.99;49.24;100725.53;5086702;28;20515;-87
2022/11/09 10:21:23;;;;;;;7.38;1.45;;;;;;;19.49;49.31;100733.13;5067016;28;20110;-86
2022/11/09 10:24:13;;;;;;;5.50;1.58;;;;;;;20.51;48.05;100723.09;5070067;28;20030;-87
2022/11/09 10:26:43;;;;;;;5.68;1.40;;;;;;;22.03;43.90;100717.00;5071282;28;20028;-86
2022/11/09 10:29:38;;;;;;;7.82;1.48;;;;;;;21.13;44.43;100720.47;5090552;28;20047;-86
2022/11/09 10:32:14;;;;;;;8.43;2.22;;;;;;;21.86;44.84;100714.97;5086521;28;20051;-89
2022/11/09 10:34:54;;;;;;;6.78;1.42;;;;;;;22.33;42.41;100718.78;5087974;28;20502;-86
2022/11/09 10:37:27;;;;;;;5.38;1.50;;;;;;;23.01;40.57;100728.72;5090497;28;20032;-86
2022/11/09 10:40:08;;;;;;;6.07;1.70;;;;;;;21.16;44.16;100727.38;5078980;28;20082;-86
2022/11/09 10:42:33;;;;;;;5.07;1.30;;;;;;;20.39;44.90;100725.81;5094151;28;20502;-87
2022/11/09 10:45:10;;;;;;;8.18;1.67;;;;;;;20.41;45.39;100727.50;5068653;28;20465;-87
2022/11/09 10:47:50;;;;;;;6.28;2.08;;;;;;;19.79;47.76;100745.94;5081404;28;20466;-86
2022/11/09 10:50:28;;;;;;;4.95;1.73;;;;;;;19.57;49.13;100728.00;5080337;28;20123;-87
2022/11/09 10:53:13;;;;;;;5.43;2.00;;;;;;;19.43;48.54;100735.44;5082334;28;20056;-86
2022/11/09 10:55:53;;;;;;;7.72;1.48;;;;;;;19.19;49.70;100741.75;5087601;28;20584;-86
2022/11/09 10:58:34;;;;;;;4.05;1.42;;;;;;;18.45;50.42;100742.94;5069076;28;20051;-87
2022/11/09 11:01:19;;;;;;;8.13;1.60;;;;;;;17.48;53.08;100755.25;5080952;28;20539;-90
2022/11/09 11:03:48;;;;;;;3.72;1.23;;;;;;;17.15;55.26;100750.44;5059577;28;20043;-87
2022/11/09 11:06:20;;;;;;;6.88;1.42;;;;;;;17.17;55.10;100750.34;5089508;28;20028;-87
2022/11/09 11:08:48;;;;;;;8.80;1.70;;;;;;;17.14;55.25;100756.75;5069142;28;20111;-87
2022/11/09 11:11:23;;;;;;;9.02;1.75;;;;;;;17.02;54.85;100757.56;5067157;28;20032;-86
2022/11/09 11:13:57;;;;;;;4.10;1.30;;;;;;;17.18;55.21;100754.72;5089406;28;20139;-87
2022/11/09 11:16:27;;;;;;;9.13;1.75;;;;;;;18.34;52.03;100763.31;5088522;28;20081;-87
2022/11/09 11:18:52;;;;;;;9.90;1.83;;;;;;;17.84;52.27;100759.84;5076887;28;20032;-87
2022/11/09 11:21:19;;;;;;;7.80;1.38;;;;;;;17.21;53.73;100754.53;5081264;28;20020;-87
2022/11/09 11:24:07;;;;;;;5.22;1.30;;;;;;;16.86;55.20;100767.59;5080233;28;20024;-87
2022/11/09 11:26:39;;;;;;;9.40;1.42;;;;;;;16.57;55.31;100751.69;5077563;28;20116;-88
2022/11/09 11:29:29;;;;;;;4.05;1.27;;;;;;;16.55;56.42;100757.16;5065377;28;20039;-87